sensor_id;sensor_type;location;lat;lon;timestamp;P1;durP1;ratioP1;P2;durP2;ratioP2
5414;SDS011;2730;51.512;7.504;2022-10-16T05:04:41;4.72;;;1.25;;
5414;SDS011;2730;51.512;7.504;2022-10-16T05:07:08;1.60;;;1.20;;
5414;SDS011;2730;51.512;7.504;2022-10-16T05:09:35;1.20;;;1.10;;
5414;SDS011;2730;51.512;7.504;2022-10-16T05:12:01;1.50;;;1.40;;
5414;SDS011;2730;51.512;7.504;2022-10-16T05:14:29;1.50;;;1.40;;
5414;SDS011;2730;51.512;7.504;2022-10-16T05:16:56;1.20;;;1.10;;
5414;SDS011;2730;51.512;7.504;2022-10-16T05:19:24;1.10;;;1.10;;
5414;SDS011;2730;51.512;7.504;2022-10-16T05:21:51;1.33;;;1.23;;
5414;SDS011;2730;51.512;7.504;2022-10-16T05:24:18;2.10;;;1.20;;
5414;SDS011;2730;51.512;7.504;2022-10-16T05:26:45;1.70;;;1.60;;
5414;SDS011;2730;51.512;7.504;2022-10-16T05:29:11;5.35;;;1.27;;
5414;SDS011;2730;51.512;7.504;2022-10-16T05:31:38;1.27;;;1.17;;
5414;SDS011;2730;51.512;7.504;2022-10-16T05:34:05;1.48;;;1.38;;
5414;SDS011;2730;51.512;7.504;2022-10-16T05:36:33;3.50;;;1.17;;
5414;SDS011;2730;51.512;7.504;2022-10-16T05:39:00;1.55;;;1.30;;
5414;SDS011;2730;51.512;7.504;2022-10-16T05:41:27;1.30;;;1.20;;
5414;SDS011;2730;51.512;7.504;2022-10-16T05:43:54;6.15;;;1.60;;
5414;SDS011;2730;51.512;7.504;2022-10-16T05:46:21;1.67;;;1.30;;
5414;SDS011;2730;51.512;7.504;2022-10-16T05:48:47;1.63;;;1.52;;
5414;SDS011;2730;51.512;7.504;2022-10-16T05:51:14;1.40;;;1.30;;
5414;SDS011;2730;51.512;7.504;2022-10-16T05:53:42;1.20;;;1.10;;
5414;SDS011;2730;51.512;7.504;2022-10-16T05:56:10;1.73;;;1.63;;
5414;SDS011;2730;51.512;7.504;2022-10-16T05:58:37;1.83;;;1.40;;
5414;SDS011;2730;51.512;7.504;2022-10-16T06:01:07;1.40;;;1.30;;
5414;SDS011;2730;51.512;7.504;2022-10-16T06:03:36;2.47;;;1.40;;
5414;SDS011;2730;51.512;7.504;2022-10-16T06:06:09;1.83;;;1.35;;
5414;SDS011;2730;51.512;7.504;2022-10-16T06:08:37;3.00;;;1.40;;
5414;SDS011;2730;51.512;7.504;2022-10-16T06:11:06;1.38;;;1.27;;
5414;SDS011;2730;51.512;7.504;2022-10-16T06:13:34;3.05;;;1.30;;
5414;SDS011;2730;51.512;7.504;2022-10-16T06:16:02;1.85;;;1.40;;
5414;SDS011;2730;51.512;7.504;2022-10-16T06:18:30;2.97;;;1.50;;
5414;SDS011;2730;51.512;7.504;2022-10-16T06:20:57;1.20;;;1.10;;
5414;SDS011;2730;51.512;7.504;2022-10-16T06:23:24;3.38;;;1.42;;
5414;SDS011;2730;51.512;7.504;2022-10-16T06:25:51;4.88;;;1.55;;
5414;SDS011;2730;51.512;7.504;2022-10-16T06:28:19;1.48;;;1.38;;
5414;SDS011;2730;51.512;7.504;2022-10-16T06:30:46;1.23;;;1.13;;
5414;SDS011;2730;51.512;7.504;2022-10-16T06:33:13;1.95;;;1.27;;
5414;SDS011;2730;51.512;7.504;2022-10-16T06:35:40;1.33;;;1.20;;
5414;SDS011;2730;51.512;7.504;2022-10-16T06:38:07;1.10;;;1.00;;
5414;SDS011;2730;51.512;7.504;2022-10-16T06:40:33;2.28;;;1.48;;
5414;SDS011;2730;51.512;7.504;2022-10-16T06:43:00;1.40;;;1.30;;
5414;SDS011;2730;51.512;7.504;2022-10-16T06:45:28;1.30;;;1.20;;
5414;SDS011;2730;51.512;7.504;2022-10-16T06:47:55;1.25;;;1.15;;
5414;SDS011;2730;51.512;7.504;2022-10-16T06:50:23;3.65;;;1.40;;
5414;SDS011;2730;51.512;7.504;2022-10-16T06:52:57;1.60;;;1.50;;
5414;SDS011;2730;51.512;7.504;2022-10-16T06:55:27;5.15;;;1.30;;
5414;SDS011;2730;51.512;7.504;2022-10-16T06:57:53;1.27;;;1.17;;
5414;SDS011;2730;51.512;7.504;2022-10-16T07:00:38;2.13;;;1.30;;
5414;SDS011;2730;51.512;7.504;2022-10-16T07:03:08;1.30;;;1.20;;
5414;SDS011;2730;51.512;7.504;2022-10-16T07:05:38;2.15;;;1.23;;
5414;SDS011;2730;51.512;7.504;2022-10-16T07:08:20;2.45;;;1.30;;
5414;SDS011;2730;51.512;7.504;2022-10-16T07:10:57;3.10;;;1.58;;
5414;SDS011;2730;51.512;7.504;2022-10-16T07:13:25;1.58;;;1.48;;
5414;SDS011;2730;51.512;7.504;2022-10-16T07:15:54;1.67;;;1.50;;
5414;SDS011;2730;51.512;7.504;2022-10-16T07:18:21;1.40;;;1.30;;
5414;SDS011;2730;51.512;7.504;2022-10-16T07:20:51;4.70;;;1.40;;
5414;SDS011;2730;51.512;7.504;2022-10-16T07:23:18;2.22;;;1.83;;
5414;SDS011;2730;51.512;7.504;2022-10-16T07:25:45;3.22;;;1.75;;
5414;SDS011;2730;51.512;7.504;2022-10-16T07:28:19;2.38;;;1.40;;
5414;SDS011;2730;51.512;7.504;2022-10-16T07:30:45;5.38;;;1.60;;
5414;SDS011;2730;51.512;7.504;2022-10-16T07:33:14;1.40;;;1.30;;
5414;SDS011;2730;51.512;7.504;2022-10-16T07:35:47;3.28;;;1.35;;
5414;SDS011;2730;51.512;7.504;2022-10-16T07:38:14;2.45;;;1.30;;
5414;SDS011;2730;51.512;7.504;2022-10-16T07:40:41;1.40;;;1.30;;
5414;SDS011;2730;51.512;7.504;2022-10-16T07:43:08;3.25;;;1.20;;
5414;SDS011;2730;51.512;7.504;2022-10-16T07:45:35;1.73;;;1.38;;
5414;SDS011;2730;51.512;7.504;2022-10-16T07:48:02;1.70;;;1.33;;
5414;SDS011;2730;51.512;7.504;2022-10-16T07:50:30;1.45;;;1.35;;
5414;SDS011;2730;51.512;7.504;2022-10-16T07:52:57;3.42;;;1.30;;
5414;SDS011;2730;51.512;7.504;2022-10-16T07:55:24;1.60;;;1.50;;
5414;SDS011;2730;51.512;7.504;2022-10-16T07:57:51;1.50;;;1.40;;
5414;SDS011;2730;51.512;7.504;2022-10-16T08:00:18;2.35;;;1.60;;
5414;SDS011;2730;51.512;7.504;2022-10-16T08:03:00;2.53;;;1.30;;
5414;SDS011;2730;51.512;7.504;2022-10-16T08:05:58;1.35;;;1.25;;
5414;SDS011;2730;51.512;7.504;2022-10-16T08:08:26;1.35;;;1.25;;
5414;SDS011;2730;51.512;7.504;2022-10-16T08:11:03;1.63;;;1.52;;
5414;SDS011;2730;51.512;7.504;2022-10-16T08:13:30;1.45;;;1.35;;
5414;SDS011;2730;51.512;7.504;2022-10-16T08:16:10;3.20;;;1.65;;
5414;SDS011;2730;51.512;7.504;2022-10-16T08:18:38;1.40;;;1.23;;
5414;SDS011;2730;51.512;7.504;2022-10-16T08:21:07;2.03;;;1.77;;
5414;SDS011;2730;51.512;7.504;2022-10-16T08:23:40;1.42;;;1.33;;
5414;SDS011;2730;51.512;7.504;2022-10-16T08:26:10;1.80;;;1.50;;
5414;SDS011;2730;51.512;7.504;2022-10-16T08:28:38;3.60;;;1.33;;
5414;SDS011;2730;51.512;7.504;2022-10-16T08:31:06;1.65;;;1.55;;
5414;SDS011;2730;51.512;7.504;2022-10-16T08:33:34;2.65;;;1.20;;
5414;SDS011;2730;51.512;7.504;2022-10-16T08:36:02;4.00;;;1.50;;
5414;SDS011;2730;51.512;7.504;2022-10-16T08:38:30;2.60;;;1.50;;
5414;SDS011;2730;51.512;7.504;2022-10-16T08:41:00;1.40;;;1.10;;
5414;SDS011;2730;51.512;7.504;2022-10-16T08:43:43;1.30;;;1.20;;
5414;SDS011;2730;51.512;7.504;2022-10-16T08:46:27;1.93;;;1.10;;
5414;SDS011;2730;51.512;7.504;2022-10-16T08:49:02;1.87;;;0.93;;
5414;SDS011;2730;51.512;7.504;2022-10-16T08:51:30;1.43;;;0.90;;
5414;SDS011;2730;51.512;7.504;2022-10-16T08:54:03;2.40;;;1.10;;
5414;SDS011;2730;51.512;7.504;2022-10-16T08:56:44;1.60;;;1.40;;
5414;SDS011;2730;51.512;7.504;2022-10-16T08:59:11;1.20;;;1.10;;
5414;SDS011;2730;51.512;7.504;2022-10-16T09:01:43;3.20;;;0.90;;
5414;SDS011;2730;51.512;7.504;2022-10-16T09:04:22;1.43;;;1.33;;
5414;SDS011;2730;51.512;7.504;2022-10-16T09:07:10;7.30;;;0.90;;
5414;SDS011;2730;51.512;7.504;2022-10-16T09:09:49;2.80;;;1.00;;
5414;SDS011;2730;51.512;7.504;2022-10-16T09:12:24;1.73;;;1.00;;
5414;SDS011;2730;51.512;7.504;2022-10-16T09:15:00;3.87;;;1.13;;
5414;SDS011;2730;51.512;7.504;2022-10-16T09:17:37;1.47;;;1.00;;
5414;SDS011;2730;51.512;7.504;2022-10-16T09:20:26;5.10;;;1.17;;
5414;SDS011;2730;51.512;7.504;2022-10-16T09:23:08;2.60;;;1.00;;
5414;SDS011;2730;51.512;7.504;2022-10-16T09:25:43;2.03;;;1.10;;
5414;SDS011;2730;51.512;7.504;2022-10-16T09:28:12;2.93;;;1.07;;
5414;SDS011;2730;51.512;7.504;2022-10-16T09:30:40;1.80;;;1.23;;
5414;SDS011;2730;51.512;7.504;2022-10-16T09:33:10;5.70;;;0.87;;
5414;SDS011;2730;51.512;7.504;2022-10-16T09:35:50;1.07;;;1.00;;
5414;SDS011;2730;51.512;7.504;2022-10-16T09:38:24;2.57;;;0.97;;
5414;SDS011;2730;51.512;7.504;2022-10-16T09:40:55;1.37;;;0.90;;
5414;SDS011;2730;51.512;7.504;2022-10-16T09:43:23;1.97;;;1.00;;
5414;SDS011;2730;51.512;7.504;2022-10-16T09:45:56;1.40;;;0.80;;
5414;SDS011;2730;51.512;7.504;2022-10-16T09:48:27;1.70;;;0.73;;
5414;SDS011;2730;51.512;7.504;2022-10-16T09:50:58;1.13;;;0.90;;
5414;SDS011;2730;51.512;7.504;2022-10-16T09:53:37;1.67;;;1.20;;
5414;SDS011;2730;51.512;7.504;2022-10-16T09:56:09;1.20;;;0.97;;
5414;SDS011;2730;51.512;7.504;2022-10-16T09:58:41;2.33;;;1.00;;
5414;SDS011;2730;51.512;7.504;2022-10-16T10:01:11;2.40;;;1.30;;
5414;SDS011;2730;51.512;7.504;2022-10-16T10:03:41;2.27;;;1.57;;
5414;SDS011;2730;51.512;7.504;2022-10-16T10:06:17;0.90;;;0.90;;
5414;SDS011;2730;51.512;7.504;2022-10-16T10:08:58;1.97;;;1.17;;
5414;SDS011;2730;51.512;7.504;2022-10-16T10:14:24;4.07;;;1.10;;
5414;SDS011;2730;51.512;7.504;2022-10-16T10:17:09;1.93;;;1.43;;
5414;SDS011;2730;51.512;7.504;2022-10-16T10:19:42;1.40;;;1.00;;
5414;SDS011;2730;51.512;7.504;2022-10-16T10:22:23;2.50;;;0.80;;
5414;SDS011;2730;51.512;7.504;2022-10-16T10:24:56;5.20;;;0.83;;
5414;SDS011;2730;51.512;7.504;2022-10-16T10:27:37;2.13;;;1.10;;
5414;SDS011;2730;51.512;7.504;2022-10-16T10:30:11;1.10;;;1.00;;
5414;SDS011;2730;51.512;7.504;2022-10-16T10:32:45;2.20;;;0.90;;
5414;SDS011;2730;51.512;7.504;2022-10-16T10:35:20;2.80;;;0.80;;
5414;SDS011;2730;51.512;7.504;2022-10-16T10:37:55;3.23;;;1.20;;
5414;SDS011;2730;51.512;7.504;2022-10-16T10:40:35;0.90;;;0.90;;
5414;SDS011;2730;51.512;7.504;2022-10-16T10:43:15;4.23;;;1.00;;
5414;SDS011;2730;51.512;7.504;2022-10-16T10:45:52;1.83;;;1.07;;
5414;SDS011;2730;51.512;7.504;2022-10-16T10:48:31;2.10;;;1.00;;
5414;SDS011;2730;51.512;7.504;2022-10-16T10:51:19;2.30;;;0.90;;
5414;SDS011;2730;51.512;7.504;2022-10-16T10:53:53;2.10;;;1.20;;
5414;SDS011;2730;51.512;7.504;2022-10-16T10:56:43;0.97;;;0.93;;
5414;SDS011;2730;51.512;7.504;2022-10-16T10:59:23;1.30;;;1.00;;
5414;SDS011;2730;51.512;7.504;2022-10-16T11:02:04;5.37;;;1.00;;
5414;SDS011;2730;51.512;7.504;2022-10-16T11:04:44;2.10;;;1.00;;
5414;SDS011;2730;51.512;7.504;2022-10-16T11:07:27;1.63;;;1.00;;
5414;SDS011;2730;51.512;7.504;2022-10-16T11:09:57;1.50;;;1.17;;
5414;SDS011;2730;51.512;7.504;2022-10-16T11:12:29;1.30;;;1.20;;
5414;SDS011;2730;51.512;7.504;2022-10-16T11:15:02;1.20;;;0.93;;
5414;SDS011;2730;51.512;7.504;2022-10-16T11:17:38;2.03;;;0.80;;
5414;SDS011;2730;51.512;7.504;2022-10-16T11:20:12;1.43;;;1.00;;
5414;SDS011;2730;51.512;7.504;2022-10-16T11:22:42;4.27;;;1.20;;
5414;SDS011;2730;51.512;7.504;2022-10-16T11:25:13;6.80;;;0.90;;
5414;SDS011;2730;51.512;7.504;2022-10-16T11:27:49;1.03;;;0.93;;
5414;SDS011;2730;51.512;7.504;2022-10-16T11:30:20;3.90;;;1.00;;
5414;SDS011;2730;51.512;7.504;2022-10-16T11:32:52;1.27;;;1.07;;
5414;SDS011;2730;51.512;7.504;2022-10-16T11:35:31;1.83;;;1.10;;
5414;SDS011;2730;51.512;7.504;2022-10-16T11:38:07;1.23;;;0.90;;
5414;SDS011;2730;51.512;7.504;2022-10-16T11:40:39;1.67;;;1.00;;
5414;SDS011;2730;51.512;7.504;2022-10-16T11:43:10;2.40;;;1.20;;
5414;SDS011;2730;51.512;7.504;2022-10-16T11:45:43;0.90;;;0.80;;
5414;SDS011;2730;51.512;7.504;2022-10-16T11:48:15;1.27;;;0.90;;
5414;SDS011;2730;51.512;7.504;2022-10-16T11:50:50;1.97;;;1.00;;
5414;SDS011;2730;51.512;7.504;2022-10-16T11:53:21;1.53;;;1.00;;
5414;SDS011;2730;51.512;7.504;2022-10-16T11:55:56;0.80;;;0.77;;
5414;SDS011;2730;51.512;7.504;2022-10-16T11:58:24;1.00;;;0.90;;
5414;SDS011;2730;51.512;7.504;2022-10-16T12:01:00;0.93;;;0.93;;
5414;SDS011;2730;51.512;7.504;2022-10-16T12:03:39;1.30;;;1.10;;
5414;SDS011;2730;51.512;7.504;2022-10-16T12:06:14;2.30;;;0.80;;
5414;SDS011;2730;51.512;7.504;2022-10-16T12:08:57;3.40;;;1.10;;
5414;SDS011;2730;51.512;7.504;2022-10-16T12:11:33;4.13;;;1.00;;
5414;SDS011;2730;51.512;7.504;2022-10-16T12:14:18;0.90;;;0.80;;
5414;SDS011;2730;51.512;7.504;2022-10-16T12:16:53;1.03;;;0.90;;
5414;SDS011;2730;51.512;7.504;2022-10-16T12:19:22;1.00;;;0.90;;
5414;SDS011;2730;51.512;7.504;2022-10-16T12:21:50;1.60;;;0.90;;
5414;SDS011;2730;51.512;7.504;2022-10-16T12:24:29;2.20;;;0.93;;
5414;SDS011;2730;51.512;7.504;2022-10-16T12:27:00;1.37;;;0.90;;
5414;SDS011;2730;51.512;7.504;2022-10-16T12:29:32;1.07;;;0.90;;
5414;SDS011;2730;51.512;7.504;2022-10-16T12:32:03;1.97;;;0.80;;
5414;SDS011;2730;51.512;7.504;2022-10-16T12:34:37;1.40;;;0.97;;
5414;SDS011;2730;51.512;7.504;2022-10-16T12:37:08;0.93;;;0.73;;
5414;SDS011;2730;51.512;7.504;2022-10-16T12:39:39;1.23;;;1.00;;
5414;SDS011;2730;51.512;7.504;2022-10-16T12:42:19;1.10;;;0.90;;
5414;SDS011;2730;51.512;7.504;2022-10-16T12:44:47;0.90;;;0.80;;
5414;SDS011;2730;51.512;7.504;2022-10-16T12:47:23;1.40;;;0.90;;
5414;SDS011;2730;51.512;7.504;2022-10-16T12:50:02;1.50;;;0.90;;
5414;SDS011;2730;51.512;7.504;2022-10-16T12:52:48;1.20;;;1.00;;
5414;SDS011;2730;51.512;7.504;2022-10-16T12:55:16;0.90;;;0.80;;
5414;SDS011;2730;51.512;7.504;2022-10-16T12:57:46;1.00;;;0.80;;
5414;SDS011;2730;51.512;7.504;2022-10-16T13:00:26;1.20;;;0.83;;
5414;SDS011;2730;51.512;7.504;2022-10-16T13:03:11;2.17;;;0.70;;
5414;SDS011;2730;51.512;7.504;2022-10-16T13:06:14;1.33;;;1.10;;
5414;SDS011;2730;51.512;7.504;2022-10-16T13:08:52;0.70;;;0.70;;
5414;SDS011;2730;51.512;7.504;2022-10-16T13:11:35;3.60;;;0.87;;
5414;SDS011;2730;51.512;7.504;2022-10-16T13:14:21;0.80;;;0.80;;
5414;SDS011;2730;51.512;7.504;2022-10-16T13:17:01;1.90;;;0.90;;
5414;SDS011;2730;51.512;7.504;2022-10-16T13:19:42;1.37;;;0.80;;
5414;SDS011;2730;51.512;7.504;2022-10-16T13:22:17;1.47;;;0.90;;
5414;SDS011;2730;51.512;7.504;2022-10-16T13:24:55;2.70;;;0.90;;
5414;SDS011;2730;51.512;7.504;2022-10-16T13:27:35;1.53;;;0.90;;
5414;SDS011;2730;51.512;7.504;2022-10-16T13:30:11;2.27;;;0.83;;
5414;SDS011;2730;51.512;7.504;2022-10-16T13:32:43;1.30;;;1.20;;
5414;SDS011;2730;51.512;7.504;2022-10-16T13:35:25;0.80;;;0.80;;
5414;SDS011;2730;51.512;7.504;2022-10-16T13:38:03;1.97;;;0.80;;
5414;SDS011;2730;51.512;7.504;2022-10-16T13:40:31;7.50;;;0.80;;
5414;SDS011;2730;51.512;7.504;2022-10-16T13:42:59;0.77;;;0.70;;
5414;SDS011;2730;51.512;7.504;2022-10-16T13:45:27;1.40;;;1.00;;
5414;SDS011;2730;51.512;7.504;2022-10-16T13:48:01;9.00;;;1.30;;
5414;SDS011;2730;51.512;7.504;2022-10-16T13:50:30;2.77;;;1.13;;
5414;SDS011;2730;51.512;7.504;2022-10-16T13:53:03;3.10;;;0.90;;
5414;SDS011;2730;51.512;7.504;2022-10-16T13:55:31;2.00;;;0.93;;
5414;SDS011;2730;51.512;7.504;2022-10-16T13:58:04;1.00;;;0.87;;
5414;SDS011;2730;51.512;7.504;2022-10-16T14:00:31;1.10;;;0.80;;
5414;SDS011;2730;51.512;7.504;2022-10-16T14:02:59;2.50;;;0.90;;
5414;SDS011;2730;51.512;7.504;2022-10-16T14:05:30;2.17;;;1.00;;
5414;SDS011;2730;51.512;7.504;2022-10-16T14:07:58;1.80;;;1.20;;
5414;SDS011;2730;51.512;7.504;2022-10-16T14:10:26;2.30;;;1.20;;
5414;SDS011;2730;51.512;7.504;2022-10-16T14:12:57;2.63;;;1.17;;
5414;SDS011;2730;51.512;7.504;2022-10-16T14:15:25;0.97;;;0.87;;
5414;SDS011;2730;51.512;7.504;2022-10-16T14:17:52;2.83;;;0.80;;
5414;SDS011;2730;51.512;7.504;2022-10-16T14:20:21;0.90;;;0.90;;
5414;SDS011;2730;51.512;7.504;2022-10-16T14:22:59;2.03;;;0.90;;
5414;SDS011;2730;51.512;7.504;2022-10-16T14:25:28;2.50;;;0.90;;
5414;SDS011;2730;51.512;7.504;2022-10-16T14:27:57;1.37;;;0.90;;
5414;SDS011;2730;51.512;7.504;2022-10-16T14:30:26;5.73;;;0.80;;
5414;SDS011;2730;51.512;7.504;2022-10-16T14:32:54;1.30;;;0.90;;
5414;SDS011;2730;51.512;7.504;2022-10-16T14:35:27;1.07;;;0.90;;
5414;SDS011;2730;51.512;7.504;2022-10-16T14:37:57;0.80;;;0.80;;
5414;SDS011;2730;51.512;7.504;2022-10-16T14:40:28;1.43;;;0.80;;
5414;SDS011;2730;51.512;7.504;2022-10-16T14:42:56;2.40;;;0.90;;
5414;SDS011;2730;51.512;7.504;2022-10-16T14:45:24;1.20;;;1.10;;
5414;SDS011;2730;51.512;7.504;2022-10-16T14:47:54;1.10;;;1.00;;
5414;SDS011;2730;51.512;7.504;2022-10-16T14:50:22;1.97;;;1.10;;
5414;SDS011;2730;51.512;7.504;2022-10-16T14:52:49;7.50;;;1.43;;
5414;SDS011;2730;51.512;7.504;2022-10-16T14:55:17;1.87;;;0.90;;
5414;SDS011;2730;51.512;7.504;2022-10-16T14:57:45;2.07;;;1.07;;
5414;SDS011;2730;51.512;7.504;2022-10-16T15:00:14;2.47;;;1.20;;
5414;SDS011;2730;51.512;7.504;2022-10-16T15:02:44;3.23;;;1.20;;
5414;SDS011;2730;51.512;7.504;2022-10-16T15:05:15;10.17;;;1.13;;
5414;SDS011;2730;51.512;7.504;2022-10-16T15:07:44;1.10;;;1.00;;
5414;SDS011;2730;51.512;7.504;2022-10-16T15:10:11;0.90;;;0.90;;
5414;SDS011;2730;51.512;7.504;2022-10-16T15:12:40;3.13;;;1.40;;
5414;SDS011;2730;51.512;7.504;2022-10-16T15:15:23;1.27;;;1.17;;
5414;SDS011;2730;51.512;7.504;2022-10-16T15:17:54;3.83;;;1.20;;
5414;SDS011;2730;51.512;7.504;2022-10-16T15:20:22;1.20;;;1.10;;
5414;SDS011;2730;51.512;7.504;2022-10-16T15:22:50;2.80;;;1.00;;
5414;SDS011;2730;51.512;7.504;2022-10-16T15:25:22;6.97;;;1.37;;
5414;SDS011;2730;51.512;7.504;2022-10-16T15:28:00;2.00;;;1.20;;
5414;SDS011;2730;51.512;7.504;2022-10-16T15:30:28;2.53;;;1.40;;
5414;SDS011;2730;51.512;7.504;2022-10-16T15:32:55;2.77;;;1.13;;
5414;SDS011;2730;51.512;7.504;2022-10-16T15:35:22;1.80;;;1.67;;
5414;SDS011;2730;51.512;7.504;2022-10-16T15:37:49;3.87;;;1.50;;
5414;SDS011;2730;51.512;7.504;2022-10-16T15:40:17;5.20;;;1.33;;
5414;SDS011;2730;51.512;7.504;2022-10-16T15:42:47;1.40;;;1.30;;
5414;SDS011;2730;51.512;7.504;2022-10-16T15:45:16;1.40;;;1.30;;
5414;SDS011;2730;51.512;7.504;2022-10-16T15:47:47;2.23;;;1.60;;
5414;SDS011;2730;51.512;7.504;2022-10-16T15:50:15;4.73;;;1.40;;
5414;SDS011;2730;51.512;7.504;2022-10-16T15:52:42;1.83;;;1.67;;
5414;SDS011;2730;51.512;7.504;2022-10-16T15:55:12;1.30;;;1.20;;
5414;SDS011;2730;51.512;7.504;2022-10-16T15:57:40;1.70;;;1.60;;
5414;SDS011;2730;51.512;7.504;2022-10-16T16:00:09;4.10;;;1.97;;
5414;SDS011;2730;51.512;7.504;2022-10-16T16:02:39;2.07;;;1.87;;
5414;SDS011;2730;51.512;7.504;2022-10-16T16:05:07;6.47;;;1.60;;
5414;SDS011;2730;51.512;7.504;2022-10-16T16:07:35;6.17;;;4.23;;
5414;SDS011;2730;51.512;7.504;2022-10-16T16:10:05;2.90;;;2.57;;
5414;SDS011;2730;51.512;7.504;2022-10-16T16:12:33;4.90;;;3.40;;
5414;SDS011;2730;51.512;7.504;2022-10-16T16:15:00;4.13;;;3.50;;
5414;SDS011;2730;51.512;7.504;2022-10-16T16:17:27;2.63;;;2.43;;
5414;SDS011;2730;51.512;7.504;2022-10-16T16:19:57;3.13;;;2.00;;
5414;SDS011;2730;51.512;7.504;2022-10-16T16:22:24;3.73;;;1.73;;
5414;SDS011;2730;51.512;7.504;2022-10-16T16:24:51;3.03;;;1.83;;
5414;SDS011;2730;51.512;7.504;2022-10-16T16:27:18;5.70;;;1.93;;
5414;SDS011;2730;51.512;7.504;2022-10-16T16:29:45;3.17;;;2.87;;
5414;SDS011;2730;51.512;7.504;2022-10-16T16:32:13;2.43;;;2.23;;
5414;SDS011;2730;51.512;7.504;2022-10-16T16:34:40;1.80;;;1.63;;
5414;SDS011;2730;51.512;7.504;2022-10-16T16:37:08;3.47;;;2.30;;
5414;SDS011;2730;51.512;7.504;2022-10-16T16:39:35;1.70;;;1.60;;
5414;SDS011;2730;51.512;7.504;2022-10-16T16:42:05;2.90;;;1.30;;
5414;SDS011;2730;51.512;7.504;2022-10-16T16:44:32;2.87;;;2.00;;
5414;SDS011;2730;51.512;7.504;2022-10-16T16:47:01;2.70;;;1.80;;
5414;SDS011;2730;51.512;7.504;2022-10-16T16:49:28;2.60;;;1.77;;
5414;SDS011;2730;51.512;7.504;2022-10-16T16:51:55;2.77;;;1.80;;
5414;SDS011;2730;51.512;7.504;2022-10-16T16:54:23;5.13;;;2.07;;
5414;SDS011;2730;51.512;7.504;2022-10-16T16:56:50;2.53;;;1.70;;
5414;SDS011;2730;51.512;7.504;2022-10-16T16:59:17;3.80;;;2.47;;
5414;SDS011;2730;51.512;7.504;2022-10-16T17:01:46;4.77;;;3.17;;
5414;SDS011;2730;51.512;7.504;2022-10-16T17:04:14;5.00;;;2.20;;
5414;SDS011;2730;51.512;7.504;2022-10-16T17:06:43;2.50;;;2.30;;
5414;SDS011;2730;51.512;7.504;2022-10-16T17:09:10;4.07;;;1.70;;
5414;SDS011;2730;51.512;7.504;2022-10-16T17:11:41;3.23;;;2.00;;
5414;SDS011;2730;51.512;7.504;2022-10-16T17:14:09;3.60;;;2.03;;
5414;SDS011;2730;51.512;7.504;2022-10-16T17:16:37;2.60;;;2.40;;
5414;SDS011;2730;51.512;7.504;2022-10-16T17:19:10;3.73;;;2.43;;
5414;SDS011;2730;51.512;7.504;2022-10-16T17:21:39;8.30;;;2.27;;
5414;SDS011;2730;51.512;7.504;2022-10-16T17:24:07;4.80;;;2.50;;
5414;SDS011;2730;51.512;7.504;2022-10-16T17:26:35;2.90;;;2.50;;
5414;SDS011;2730;51.512;7.504;2022-10-16T17:29:10;3.77;;;1.90;;
5414;SDS011;2730;51.512;7.504;2022-10-16T17:31:38;2.63;;;2.10;;
5414;SDS011;2730;51.512;7.504;2022-10-16T17:34:06;4.40;;;2.90;;
5414;SDS011;2730;51.512;7.504;2022-10-16T17:36:35;5.30;;;3.43;;
5414;SDS011;2730;51.512;7.504;2022-10-16T17:39:03;6.90;;;2.30;;
5414;SDS011;2730;51.512;7.504;2022-10-16T17:41:32;8.33;;;2.70;;
5414;SDS011;2730;51.512;7.504;2022-10-16T17:43:59;4.77;;;2.40;;
5414;SDS011;2730;51.512;7.504;2022-10-16T17:46:28;4.87;;;2.40;;
5414;SDS011;2730;51.512;7.504;2022-10-16T17:48:55;3.40;;;2.72;;
5414;SDS011;2730;51.512;7.504;2022-10-16T17:51:25;5.47;;;3.00;;
5414;SDS011;2730;51.512;7.504;2022-10-16T17:53:56;4.67;;;3.23;;
5414;SDS011;2730;51.512;7.504;2022-10-16T17:56:25;3.53;;;2.70;;
5414;SDS011;2730;51.512;7.504;2022-10-16T17:58:52;4.13;;;2.70;;
5414;SDS011;2730;51.512;7.504;2022-10-16T18:01:24;13.10;;;3.17;;
5414;SDS011;2730;51.512;7.504;2022-10-16T18:04:53;2.87;;;2.20;;
5414;SDS011;2730;51.512;7.504;2022-10-16T18:07:20;2.53;;;1.90;;
5414;SDS011;2730;51.512;7.504;2022-10-16T18:09:47;5.60;;;2.50;;
5414;SDS011;2730;51.512;7.504;2022-10-16T18:12:14;4.07;;;2.03;;
5414;SDS011;2730;51.512;7.504;2022-10-16T18:14:41;2.80;;;2.60;;
5414;SDS011;2730;51.512;7.504;2022-10-16T18:17:08;8.30;;;2.57;;
5414;SDS011;2730;51.512;7.504;2022-10-16T18:19:35;4.37;;;2.10;;
5414;SDS011;2730;51.512;7.504;2022-10-16T18:22:03;2.37;;;2.17;;
5414;SDS011;2730;51.512;7.504;2022-10-16T18:24:29;3.90;;;2.07;;
5414;SDS011;2730;51.512;7.504;2022-10-16T18:26:56;2.57;;;2.00;;
5414;SDS011;2730;51.512;7.504;2022-10-16T18:29:23;5.47;;;2.00;;
5414;SDS011;2730;51.512;7.504;2022-10-16T18:31:51;4.13;;;2.03;;
5414;SDS011;2730;51.512;7.504;2022-10-16T18:34:19;1.97;;;1.70;;
5414;SDS011;2730;51.512;7.504;2022-10-16T18:36:46;2.37;;;2.20;;
5414;SDS011;2730;51.512;7.504;2022-10-16T18:39:14;4.63;;;2.40;;
5414;SDS011;2730;51.512;7.504;2022-10-16T18:41:42;3.70;;;2.30;;
5414;SDS011;2730;51.512;7.504;2022-10-16T18:44:09;4.40;;;2.60;;
5414;SDS011;2730;51.512;7.504;2022-10-16T18:46:37;2.43;;;2.10;;
5414;SDS011;2730;51.512;7.504;2022-10-16T18:49:04;4.27;;;2.10;;
5414;SDS011;2730;51.512;7.504;2022-10-16T18:51:32;8.23;;;1.67;;
5414;SDS011;2730;51.512;7.504;2022-10-16T18:54:01;2.70;;;2.03;;
5414;SDS011;2730;51.512;7.504;2022-10-16T18:56:33;7.43;;;2.70;;
5414;SDS011;2730;51.512;7.504;2022-10-16T18:59:00;2.60;;;2.27;;
5414;SDS011;2730;51.512;7.504;2022-10-16T19:01:29;2.53;;;2.33;;
5414;SDS011;2730;51.512;7.504;2022-10-16T19:03:58;3.53;;;2.30;;
5414;SDS011;2730;51.512;7.504;2022-10-16T19:06:26;3.67;;;2.90;;
5414;SDS011;2730;51.512;7.504;2022-10-16T19:08:54;2.63;;;2.43;;
5414;SDS011;2730;51.512;7.504;2022-10-16T19:11:22;4.13;;;2.57;;
5414;SDS011;2730;51.512;7.504;2022-10-16T19:13:52;3.93;;;2.43;;
5414;SDS011;2730;51.512;7.504;2022-10-16T19:16:20;2.67;;;2.43;;
5414;SDS011;2730;51.512;7.504;2022-10-16T19:18:49;2.70;;;2.50;;
5414;SDS011;2730;51.512;7.504;2022-10-16T19:21:17;4.27;;;3.43;;
5414;SDS011;2730;51.512;7.504;2022-10-16T19:23:44;4.70;;;3.17;;
5414;SDS011;2730;51.512;7.504;2022-10-16T19:26:12;5.07;;;3.20;;
5414;SDS011;2730;51.512;7.504;2022-10-16T19:28:40;6.27;;;2.70;;
5414;SDS011;2730;51.512;7.504;2022-10-16T19:31:10;3.17;;;2.80;;
5414;SDS011;2730;51.512;7.504;2022-10-16T19:33:38;7.53;;;3.37;;
5414;SDS011;2730;51.512;7.504;2022-10-16T19:36:06;4.27;;;3.20;;
5414;SDS011;2730;51.512;7.504;2022-10-16T19:38:33;9.30;;;4.10;;
5414;SDS011;2730;51.512;7.504;2022-10-16T19:41:03;3.70;;;3.37;;
5414;SDS011;2730;51.512;7.504;2022-10-16T19:43:31;10.63;;;5.70;;
5414;SDS011;2730;51.512;7.504;2022-10-16T19:46:01;11.00;;;4.20;;
5414;SDS011;2730;51.512;7.504;2022-10-16T19:48:30;8.90;;;4.17;;
5414;SDS011;2730;51.512;7.504;2022-10-16T19:50:57;6.20;;;3.93;;
5414;SDS011;2730;51.512;7.504;2022-10-16T19:53:24;5.83;;;4.53;;
5414;SDS011;2730;51.512;7.504;2022-10-16T19:55:52;7.70;;;4.07;;
5414;SDS011;2730;51.512;7.504;2022-10-16T19:58:19;6.13;;;4.80;;
5414;SDS011;2730;51.512;7.504;2022-10-16T20:00:46;5.80;;;4.57;;
5414;SDS011;2730;51.512;7.504;2022-10-16T20:03:13;6.83;;;4.90;;
5414;SDS011;2730;51.512;7.504;2022-10-16T20:05:41;7.90;;;4.80;;
5414;SDS011;2730;51.512;7.504;2022-10-16T20:08:15;11.30;;;4.83;;
5414;SDS011;2730;51.512;7.504;2022-10-16T20:10:46;7.77;;;4.77;;
5414;SDS011;2730;51.512;7.504;2022-10-16T20:13:13;7.00;;;4.63;;
5414;SDS011;2730;51.512;7.504;2022-10-16T20:15:40;5.33;;;4.20;;
5414;SDS011;2730;51.512;7.504;2022-10-16T20:18:07;4.83;;;4.27;;
5414;SDS011;2730;51.512;7.504;2022-10-16T20:20:35;5.80;;;4.57;;
5414;SDS011;2730;51.512;7.504;2022-10-16T20:23:04;6.18;;;4.35;;
5414;SDS011;2730;51.512;7.504;2022-10-16T20:25:33;6.53;;;5.30;;
5414;SDS011;2730;51.512;7.504;2022-10-16T20:28:00;6.87;;;5.03;;
5414;SDS011;2730;51.512;7.504;2022-10-16T20:30:27;8.30;;;5.10;;
5414;SDS011;2730;51.512;7.504;2022-10-16T20:32:53;4.63;;;4.00;;
5414;SDS011;2730;51.512;7.504;2022-10-16T20:35:20;10.50;;;4.47;;
5414;SDS011;2730;51.512;7.504;2022-10-16T20:37:47;9.37;;;5.43;;
5414;SDS011;2730;51.512;7.504;2022-10-16T20:40:16;6.20;;;4.93;;
5414;SDS011;2730;51.512;7.504;2022-10-16T20:42:42;4.93;;;4.40;;
5414;SDS011;2730;51.512;7.504;2022-10-16T20:45:09;9.70;;;5.43;;